createdAt,value
2017-09-16T00:01:01.585Z,2.75
2017-09-16T00:03:30.521Z,2.50
2017-09-16T00:05:58.685Z,3.10
2017-09-16T00:08:26.820Z,3.50
2017-09-16T00:10:55.886Z,3.15
2017-09-16T00:13:24.021Z,3.72
2017-09-16T00:15:52.156Z,3.60
2017-09-16T00:18:20.321Z,3.05
2017-09-16T00:20:48.460Z,2.78
2017-09-16T00:23:16.645Z,3.05
2017-09-16T00:25:44.781Z,3.10
2017-09-16T00:28:12.913Z,3.83
2017-09-16T00:30:41.189Z,3.00
2017-09-16T00:33:09.329Z,2.90
2017-09-16T00:35:37.513Z,3.03
2017-09-16T00:38:05.652Z,3.20
2017-09-16T00:40:33.792Z,3.00
2017-09-16T00:43:02.728Z,3.58
2017-09-16T00:45:30.860Z,4.50
2017-09-16T00:47:59.918Z,3.35
2017-09-16T00:50:28.050Z,3.70
2017-09-16T00:52:56.228Z,3.37
2017-09-16T00:55:24.360Z,4.15
2017-09-16T00:57:52.509Z,3.83
2017-09-16T01:00:20.685Z,3.58
2017-09-16T01:02:48.820Z,3.58
2017-09-16T01:05:16.961Z,3.70
2017-09-16T01:07:45.240Z,3.65
2017-09-16T01:10:13.389Z,3.45
2017-09-16T01:12:41.581Z,4.28
2017-09-16T01:15:09.721Z,4.80
2017-09-16T01:17:37.884Z,3.35
2017-09-16T01:20:06.029Z,3.53
2017-09-16T01:22:34.172Z,3.78
2017-09-16T01:25:02.445Z,3.80
2017-09-16T01:27:30.589Z,5.25
2017-09-16T01:30:00.048Z,4.12
2017-09-16T01:32:28.950Z,3.80
2017-09-16T01:34:57.109Z,3.80
2017-09-16T01:37:26.024Z,3.75
2017-09-16T01:39:54.165Z,3.53
2017-09-16T01:42:23.212Z,3.95
2017-09-16T01:44:51.354Z,4.10
2017-09-16T01:47:19.488Z,3.70
2017-09-16T01:49:47.657Z,3.80
2017-09-16T01:52:15.808Z,3.80
2017-09-16T01:54:43.969Z,4.10
2017-09-16T01:57:12.101Z,4.40
2017-09-16T01:59:41.157Z,4.35
2017-09-16T02:02:09.306Z,4.53
2017-09-16T02:04:37.441Z,4.15
2017-09-16T02:07:06.397Z,3.80
2017-09-16T02:09:34.549Z,3.80
2017-09-16T02:12:02.724Z,3.80
2017-09-16T02:14:30.861Z,3.65
2017-09-16T02:16:59.759Z,4.30
2017-09-16T02:19:27.923Z,4.10
2017-09-16T02:21:56.820Z,4.37
2017-09-16T02:24:24.994Z,4.05
2017-09-16T02:26:53.916Z,4.32
2017-09-16T02:29:22.075Z,3.90
2017-09-16T02:31:50.217Z,3.90
2017-09-16T02:34:19.141Z,4.03
2017-09-16T02:36:47.316Z,4.35
2017-09-16T02:39:15.467Z,3.60
2017-09-16T02:41:43.751Z,4.53
2017-09-16T02:44:11.889Z,4.35
2017-09-16T02:46:40.050Z,3.75
2017-09-16T02:49:08.185Z,4.00
2017-09-16T02:51:36.341Z,4.00
2017-09-16T02:54:04.481Z,3.08
2017-09-16T02:56:32.760Z,3.70
2017-09-16T02:59:00.921Z,4.03
2017-09-16T03:01:29.060Z,3.72
2017-09-16T03:03:57.234Z,4.30
2017-09-16T03:06:25.373Z,3.90
2017-09-16T03:08:53.658Z,3.12
2017-09-16T03:11:21.785Z,3.65
2017-09-16T03:13:49.926Z,3.85
2017-09-16T03:16:18.081Z,3.87
2017-09-16T03:18:46.221Z,3.60
2017-09-16T03:21:14.378Z,4.00
2017-09-16T03:23:42.505Z,3.70
2017-09-16T03:26:10.635Z,3.50
2017-09-16T03:28:38.913Z,3.35
2017-09-16T03:31:07.038Z,3.60
2017-09-16T03:33:35.201Z,3.40
2017-09-16T03:36:03.323Z,3.30
2017-09-16T03:38:31.500Z,3.55
2017-09-16T03:41:00.422Z,3.53
2017-09-16T03:43:28.536Z,3.87
2017-09-16T03:45:56.700Z,3.80
2017-09-16T03:48:25.603Z,3.40
2017-09-16T03:50:53.865Z,3.90
2017-09-16T03:53:22.760Z,3.92
2017-09-16T03:55:50.929Z,4.10
2017-09-16T03:58:19.053Z,3.75
2017-09-16T04:00:47.207Z,3.80
2017-09-16T04:03:15.337Z,4.03
2017-09-16T04:05:43.492Z,3.55
2017-09-16T04:08:12.528Z,3.70
2017-09-16T04:10:40.660Z,3.30
2017-09-16T04:13:09.588Z,3.37
2017-09-16T04:15:37.736Z,3.42
2017-09-16T04:18:05.852Z,3.60
2017-09-16T04:20:34.035Z,3.55
2017-09-16T04:23:02.168Z,3.80
2017-09-16T04:25:30.322Z,4.07
2017-09-16T04:27:58.555Z,3.65
2017-09-16T04:30:26.686Z,3.70
2017-09-16T04:32:54.846Z,4.20
2017-09-16T04:35:23.013Z,3.65
2017-09-16T04:37:51.934Z,3.90
2017-09-16T04:40:20.057Z,3.55
2017-09-16T04:42:48.249Z,4.05
2017-09-16T04:45:17.149Z,3.17
2017-09-16T04:47:45.309Z,3.95
2017-09-16T04:50:14.221Z,3.87
2017-09-16T04:52:42.344Z,3.90
2017-09-16T04:55:10.601Z,4.93
2017-09-16T04:57:38.744Z,4.40
2017-09-16T05:00:06.916Z,4.35
2017-09-16T05:02:35.053Z,4.30
2017-09-16T05:05:03.208Z,4.78
2017-09-16T05:07:31.352Z,4.10
2017-09-16T05:09:59.488Z,4.80
2017-09-16T05:12:28.431Z,4.45
2017-09-16T05:14:57.347Z,4.12
2017-09-16T05:17:25.493Z,4.37
2017-09-16T05:19:53.620Z,4.00
2017-09-16T05:22:22.541Z,4.40
2017-09-16T05:24:50.698Z,4.18
2017-09-16T05:27:18.829Z,4.62
2017-09-16T05:29:47.020Z,5.40
2017-09-16T05:32:15.914Z,5.95
2017-09-16T05:34:44.840Z,6.03
2017-09-16T05:37:12.969Z,7.18
2017-09-16T05:39:41.105Z,6.78
2017-09-16T05:42:09.282Z,7.60
2017-09-16T05:44:37.422Z,7.50
2017-09-16T05:47:06.845Z,8.55
2017-09-16T05:49:34.988Z,8.65
2017-09-16T05:52:03.130Z,8.30
2017-09-16T05:54:31.290Z,7.85
2017-09-16T05:57:00.601Z,11.02
2017-09-16T05:59:28.768Z,10.18
2017-09-16T06:01:56.908Z,11.10
2017-09-16T06:04:25.062Z,9.43
2017-09-16T06:06:53.324Z,10.02
2017-09-16T06:09:21.452Z,9.07
2017-09-16T13:57:45.157Z,4.55
2017-09-16T14:00:13.341Z,3.15
2017-09-16T14:02:41.550Z,3.30
2017-09-16T14:05:09.749Z,4.28
2017-09-16T14:07:38.650Z,4.53
2017-09-16T14:10:06.821Z,4.43
2017-09-16T14:12:34.966Z,5.00
2017-09-16T14:15:03.917Z,4.15
2017-09-16T14:17:33.388Z,4.07
2017-09-16T14:20:02.694Z,4.75
2017-09-16T14:22:30.864Z,4.62
2017-09-16T14:24:59.020Z,3.87
2017-09-16T14:27:28.657Z,2.80
2017-09-16T14:29:56.902Z,2.67
2017-09-16T14:32:25.864Z,3.70
2017-09-16T14:34:53.994Z,3.30
2017-09-16T14:37:22.321Z,2.75
2017-09-16T14:39:50.465Z,2.40
2017-09-16T14:42:18.620Z,2.50
2017-09-16T14:44:46.806Z,1.90
2017-09-16T14:47:14.973Z,1.90
2017-09-16T14:49:43.156Z,2.20
2017-09-16T14:52:11.335Z,2.30
2017-09-16T14:54:39.902Z,2.28
2017-09-16T14:57:08.889Z,2.15
2017-09-16T14:59:37.679Z,1.92
2017-09-16T15:02:08.326Z,2.53
2017-09-16T15:04:37.063Z,2.40
2017-09-16T15:07:07.297Z,2.17
2017-09-16T15:09:37.614Z,2.50
2017-09-16T15:12:07.938Z,2.50
2017-09-16T15:14:37.009Z,2.40
2017-09-16T15:17:08.769Z,2.90
2017-09-16T15:19:39.758Z,2.40
2017-09-16T15:22:11.325Z,2.72
2017-09-16T15:24:42.146Z,2.33
2017-09-16T15:27:13.145Z,2.75
2017-09-16T15:29:44.434Z,3.47
2017-09-16T15:32:15.218Z,4.75
2017-09-16T15:34:45.800Z,4.28
2017-09-16T15:37:16.100Z,3.75
2017-09-16T15:39:46.200Z,4.07
2017-09-16T15:42:16.398Z,4.18
2017-09-16T15:44:45.398Z,4.32
2017-09-16T15:47:14.707Z,4.10
2017-09-16T15:49:43.913Z,4.12
2017-09-16T15:52:13.356Z,4.18
2017-09-16T15:54:41.970Z,4.05
2017-09-16T15:57:10.469Z,4.85
2017-09-16T15:59:50.257Z,5.22
2017-09-16T16:02:19.255Z,4.78
2017-09-16T16:05:03.838Z,4.65
2017-09-16T16:07:38.202Z,5.20
2017-09-16T16:10:12.573Z,6.05
2017-09-16T16:12:40.994Z,4.62
2017-09-16T16:15:11.782Z,4.22
2017-09-16T16:17:43.182Z,4.53
2017-09-16T16:20:13.564Z,5.90
2017-09-16T16:22:42.809Z,4.82
2017-09-16T16:25:13.131Z,4.50
2017-09-16T16:27:42.570Z,4.70
2017-09-16T16:30:11.398Z,6.05
2017-09-16T16:32:43.434Z,5.80
2017-09-16T16:35:14.863Z,6.12
2017-09-16T16:37:44.548Z,6.70
2017-09-16T16:40:12.783Z,4.55
2017-09-16T16:42:41.586Z,4.70
2017-09-16T16:45:11.055Z,4.30
2017-09-16T16:47:40.194Z,4.15
2017-09-16T16:50:09.667Z,4.25
2017-09-16T16:52:38.413Z,4.05
2017-09-16T16:55:07.170Z,3.67
2017-09-16T16:57:35.347Z,4.10
2017-09-16T17:00:03.504Z,3.40
2017-09-16T17:02:31.662Z,3.03
2017-09-16T17:04:59.847Z,3.00
2017-09-16T17:07:27.997Z,2.83
2017-09-16T17:09:56.189Z,2.87
2017-09-16T17:12:24.356Z,2.62
2017-09-16T17:14:52.526Z,3.10
2017-09-16T17:17:20.696Z,2.70
2017-09-16T17:19:55.067Z,3.15
2017-09-16T17:22:24.037Z,2.40
2017-09-16T17:24:57.818Z,2.53
2017-09-16T17:27:27.368Z,2.42
2017-09-16T17:29:56.557Z,2.25
2017-09-16T17:32:29.927Z,2.20
2017-09-16T17:35:03.880Z,2.10
2017-09-16T17:37:36.768Z,2.35
2017-09-16T17:40:06.990Z,2.60
2017-09-16T17:42:39.690Z,3.10
2017-09-16T17:45:21.602Z,2.85
2017-09-16T17:47:49.805Z,3.28
2017-09-16T17:50:17.998Z,3.80
2017-09-16T17:53:12.612Z,4.03
2017-09-16T17:55:46.532Z,3.42
2017-09-16T17:58:23.268Z,3.40
2017-09-16T18:00:53.169Z,4.03
2017-09-16T18:03:21.650Z,3.90
2017-09-16T18:05:55.517Z,3.70
2017-09-16T18:08:23.919Z,3.50
2017-09-16T18:10:55.716Z,3.75
2017-09-16T18:13:25.749Z,4.87
2017-09-16T18:15:54.388Z,5.53
2017-09-16T18:18:24.312Z,8.80
2017-09-16T18:20:52.577Z,9.60
2017-09-16T18:23:23.997Z,8.95
2017-09-16T18:25:57.536Z,5.53
2017-09-16T18:28:31.717Z,6.75
2017-09-16T18:31:03.645Z,5.70
2017-09-16T18:33:32.691Z,6.50
2017-09-16T18:36:00.877Z,5.87
2017-09-16T18:38:34.175Z,5.70
2017-09-16T18:41:08.655Z,5.95
2017-09-16T18:43:38.485Z,6.20
2017-09-16T18:46:12.768Z,5.95
2017-09-16T18:48:50.026Z,5.60
2017-09-16T18:51:18.345Z,6.70
2017-09-16T18:53:46.504Z,5.80
2017-09-16T18:56:32.361Z,6.60
2017-09-16T18:59:04.174Z,6.50
2017-09-16T19:01:37.337Z,6.78
2017-09-16T19:04:10.180Z,6.50
2017-09-16T19:06:39.306Z,6.37
2017-09-16T19:09:12.955Z,6.80
2017-09-16T19:11:44.782Z,6.55
2017-09-16T19:14:14.534Z,5.47
2017-09-16T19:16:48.338Z,6.25
2017-09-16T19:19:19.492Z,5.60
2017-09-16T19:21:55.413Z,5.87
2017-09-16T19:24:28.325Z,6.97
2017-09-16T19:26:57.337Z,6.90
2017-09-16T19:29:28.544Z,7.05
2017-09-16T19:32:00.989Z,8.02
2017-09-16T19:34:31.640Z,7.18
2017-09-16T19:39:54.653Z,7.60
2017-09-16T19:42:24.520Z,7.78
2017-09-16T19:44:57.739Z,8.38
2017-09-16T19:47:27.044Z,9.13
2017-09-16T19:49:59.009Z,9.07
2017-09-16T19:52:27.471Z,9.45
2017-09-16T19:54:57.728Z,10.05
2017-09-16T19:57:31.188Z,9.98
2017-09-16T20:00:00.525Z,9.57
2017-09-16T20:02:28.786Z,8.93
2017-09-16T20:04:56.948Z,8.15
2017-09-16T20:07:25.129Z,7.65
2017-09-16T20:09:53.340Z,7.30
2017-09-16T20:12:21.565Z,7.07
2017-09-16T20:14:49.702Z,7.47
2017-09-16T20:17:18.796Z,6.70
2017-09-16T20:19:46.961Z,6.97
2017-09-16T20:22:15.220Z,6.80
2017-09-16T20:24:43.372Z,7.00
2017-09-16T20:27:11.524Z,6.72
2017-09-16T20:29:39.698Z,5.97
2017-09-16T20:32:07.868Z,6.80
2017-09-16T20:34:36.074Z,6.90
2017-09-16T20:37:04.238Z,6.32
2017-09-16T20:39:33.729Z,6.62
2017-09-16T20:42:02.124Z,6.65
2017-09-16T20:44:30.268Z,6.60
2017-09-16T20:46:58.469Z,6.70
2017-09-16T20:49:26.637Z,6.40
2017-09-16T20:51:54.941Z,6.22
2017-09-16T20:54:23.110Z,5.75
2017-09-16T20:56:51.376Z,6.30
2017-09-16T20:59:19.525Z,6.25
2017-09-16T21:01:47.698Z,5.90
2017-09-16T21:04:15.873Z,5.95
2017-09-16T21:06:44.349Z,5.70
2017-09-16T21:09:12.616Z,5.70
2017-09-16T21:11:40.760Z,6.62
2017-09-16T21:14:08.950Z,6.07
2017-09-16T21:16:37.870Z,5.68
2017-09-16T21:19:06.061Z,5.20
2017-09-16T21:21:34.221Z,5.82
2017-09-16T21:24:02.357Z,6.40
2017-09-16T21:26:31.587Z,4.93
2017-09-16T21:28:59.718Z,5.47
2017-09-16T21:31:29.073Z,5.15
2017-09-16T21:33:57.242Z,4.97
2017-09-16T21:36:25.435Z,5.47
2017-09-16T21:38:53.561Z,5.75
2017-09-16T21:41:21.866Z,4.93
2017-09-16T21:43:50.073Z,4.93
2017-09-16T21:46:18.225Z,5.05
2017-09-16T21:48:46.371Z,5.30
2017-09-16T21:51:14.529Z,5.78
2017-09-16T21:53:42.685Z,5.18
2017-09-16T21:56:10.877Z,5.93
2017-09-16T21:58:39.784Z,5.65
2017-09-16T22:01:08.083Z,6.15
2017-09-16T22:03:36.217Z,5.55
2017-09-16T22:06:05.138Z,5.30
2017-09-16T22:08:33.309Z,6.18
2017-09-16T22:11:01.442Z,6.65
2017-09-16T22:13:30.505Z,6.60
2017-09-16T22:15:58.661Z,6.22
2017-09-16T22:18:26.817Z,5.93
2017-09-16T22:20:55.269Z,6.80
2017-09-16T22:23:24.172Z,6.18
2017-09-16T22:25:52.340Z,7.15
2017-09-16T22:28:21.245Z,5.95
2017-09-16T22:30:49.450Z,6.32
2017-09-16T22:33:17.584Z,5.90
2017-09-16T22:35:45.740Z,6.25
2017-09-16T22:38:14.001Z,5.97
2017-09-16T22:40:42.237Z,5.10
2017-09-16T22:43:10.414Z,6.35
2017-09-16T22:45:38.567Z,7.50
2017-09-16T22:48:06.749Z,5.82
2017-09-16T22:50:34.892Z,6.93
2017-09-16T22:53:03.841Z,6.55
2017-09-16T22:55:32.014Z,6.53
2017-09-16T22:58:00.288Z,6.35
2017-09-16T23:00:28.413Z,6.68
2017-09-16T23:02:56.552Z,7.10
2017-09-16T23:05:24.757Z,7.62
2017-09-16T23:07:52.856Z,7.75
2017-09-16T23:10:21.012Z,8.35
2017-09-16T23:12:49.193Z,8.27
2017-09-16T23:15:17.360Z,7.03
2017-09-16T23:17:45.649Z,7.28
2017-09-16T23:20:13.776Z,6.80
2017-09-16T23:22:41.972Z,6.03
2017-09-16T23:25:10.869Z,6.60
2017-09-16T23:27:38.996Z,6.40
2017-09-16T23:30:07.265Z,5.50
2017-09-16T23:32:35.394Z,6.28
2017-09-16T23:35:03.556Z,5.43
2017-09-16T23:37:32.459Z,5.55
2017-09-16T23:40:00.621Z,4.70
2017-09-16T23:42:29.526Z,4.82
2017-09-16T23:44:57.813Z,4.53
2017-09-16T23:47:25.949Z,4.53
2017-09-16T23:49:54.846Z,4.00
2017-09-16T23:52:23.778Z,4.87
2017-09-16T23:54:51.932Z,4.68
2017-09-16T23:57:20.085Z,4.43
2017-09-16T23:59:49.001Z,4.85
